Time;durP1;ratioP1;P1;durP2;ratioP2;P2;SDS_P1;SDS_P2;PMS_P1;PMS_P2;Temp;Humidity;BMP_temperature;BMP_pressure;BME280_temperature;BME280_humidity;BME280_pressure;Samples;Min_cycle;Max_cycle;Signal;HPM_P1;HPM_P2
2023/06/07 00:02:16;;;;;;;25.08;22.67;;;24.50;70.40;;;;;;4651708;55;21619;-33
2023/06/07 00:07:18;;;;;;;25.92;23.27;;;24.50;70.40;;;;;;4673585;55;21103;-31
2023/06/07 00:12:19;;;;;;;24.55;22.10;;;24.50;70.40;;;;;;4870337;55;21624;-33
2023/06/07 00:17:20;;;;;;;23.60;21.40;;;24.50;70.30;;;;;;4874762;55;21009;-32
2023/06/07 00:22:21;;;;;;;24.73;22.40;;;24.50;70.30;;;;;;4615582;57;21546;-33
2023/06/07 00:27:22;;;;;;;24.87;22.58;;;24.50;70.40;;;;;;4672070;55;21025;-33
2023/06/07 00:32:23;;;;;;;24.48;22.17;;;24.50;70.40;;;;;;4638911;55;21490;-33
2023/06/07 00:37:24;;;;;;;25.10;22.73;;;24.50;70.40;;;;;;4756002;55;21112;-33
2023/06/07 00:42:25;;;;;;;24.30;22.08;;;24.50;70.30;;;;;;4615248;59;21042;-34
2023/06/07 00:47:28;;;;;;;23.10;20.90;;;24.50;70.40;;;;;;4644654;55;21543;-34
2023/06/07 00:52:29;;;;;;;23.62;21.45;;;24.50;70.40;;;;;;4753670;56;21033;-34
2023/06/07 00:57:33;;;;;;;23.60;21.40;;;24.50;70.40;;;;;;4615857;60;21566;-35
2023/06/07 01:02:33;;;;;;;22.87;20.70;;;24.50;70.40;;;;;;4669607;55;21717;-33
2023/06/07 01:07:34;;;;;;;22.05;20.05;;;24.50;70.30;;;;;;4654623;55;21032;-33
2023/06/07 01:12:36;;;;;;;22.17;20.10;;;24.50;70.40;;;;;;4645947;55;21049;-33
2023/06/07 01:17:40;;;;;;;22.55;20.45;;;24.50;70.40;;;;;;4615641;57;21531;-32
2023/06/07 01:22:45;;;;;;;22.62;20.52;;;24.50;70.40;;;;;;4772186;56;21037;-35
2023/06/07 01:27:47;;;;;;;21.77;19.77;;;24.50;70.30;;;;;;4634878;56;21069;-33
2023/06/07 01:32:49;;;;;;;21.35;19.37;;;24.50;70.40;;;;;;4643100;56;21539;-28
2023/06/07 01:37:50;;;;;;;22.17;20.08;;;24.50;70.30;;;;;;4615359;60;21013;-33
2023/06/07 01:42:52;;;;;;;22.30;20.20;;;24.50;70.40;;;;;;4615876;60;21606;-34
2023/06/07 01:47:53;;;;;;;21.12;19.05;;;24.40;70.30;;;;;;4614408;60;21069;-32
2023/06/07 01:52:54;;;;;;;23.05;20.95;;;24.50;70.40;;;;;;4710443;55;21506;-33
2023/06/07 02:01:46;;;;;;;20.10;18.30;;;24.50;70.40;;;;;;4677509;55;21037;-34
2023/06/07 02:06:51;;;;;;;20.92;19.02;;;24.50;70.40;;;;;;4616819;56;21001;-33
2023/06/07 02:11:53;;;;;;;22.00;19.90;;;24.40;70.30;;;;;;4615497;60;21021;-34
2023/06/07 02:16:54;;;;;;;21.12;19.12;;;24.50;70.40;;;;;;4669154;55;21578;-31
2023/06/07 02:21:55;;;;;;;21.05;19.05;;;24.50;70.40;;;;;;4665429;56;21034;-34
2023/06/07 02:26:55;;;;;;;21.55;19.45;;;24.40;70.40;;;;;;4616020;59;21029;-34
2023/06/07 02:32:00;;;;;;;19.55;17.75;;;24.50;70.40;;;;;;4615235;59;21097;-35
2023/06/07 02:37:01;;;;;;;21.10;19.15;;;24.50;70.70;;;;;;4615621;60;21369;-33
2023/06/07 02:42:02;;;;;;;20.42;18.52;;;24.40;70.30;;;;;;4719624;55;21116;-33
2023/06/07 02:47:03;;;;;;;20.73;18.77;;;24.50;70.40;;;;;;4645402;56;21124;-33
2023/06/07 02:52:06;;;;;;;19.75;17.85;;;24.50;70.40;;;;;;4720472;56;21030;-33
2023/06/07 02:57:08;;;;;;;20.02;18.23;;;24.50;70.40;;;;;;4746457;56;21129;-33
2023/06/07 03:02:08;;;;;;;20.20;18.30;;;24.50;70.40;;;;;;4615174;59;21527;-32
2023/06/07 03:07:09;;;;;;;19.55;17.65;;;24.40;70.90;;;;;;4755035;55;21013;-34
2023/06/07 03:12:10;;;;;;;18.75;16.98;;;24.40;70.30;;;;;;4821042;55;21069;-32
2023/06/07 03:17:11;;;;;;;19.27;17.48;;;24.50;70.30;;;;;;4664630;55;21457;-31
2023/06/07 03:22:12;;;;;;;19.67;17.83;;;24.40;70.40;;;;;;4748320;55;21495;-33
2023/06/07 03:27:13;;;;;;;18.05;16.45;;;24.50;70.40;;;;;;4968682;55;21014;-33
2023/06/07 03:32:14;;;;;;;18.33;16.62;;;24.40;70.30;;;;;;4675799;55;21470;-31
2023/06/07 03:37:15;;;;;;;19.60;17.75;;;24.40;70.40;;;;;;4693699;55;21001;-33
2023/06/07 03:42:16;;;;;;;18.55;16.77;;;24.40;70.30;;;;;;4701413;55;21491;-33
2023/06/07 03:47:17;;;;;;;18.35;16.65;;;24.40;70.30;;;;;;4708472;55;21045;-33
2023/06/07 03:52:18;;;;;;;18.52;16.73;;;24.40;70.30;;;;;;4616125;55;21077;-33
2023/06/07 03:57:18;;;;;;;18.17;16.48;;;24.40;70.20;;;;;;4775266;55;21022;-33
2023/06/07 04:02:19;;;;;;;18.30;16.60;;;24.40;70.20;;;;;;4676929;55;21104;-32
2023/06/07 04:07:20;;;;;;;17.33;15.73;;;24.40;70.20;;;;;;4615462;59;21587;-31
2023/06/07 04:12:21;;;;;;;17.48;15.85;;;24.40;70.20;;;;;;4645003;55;21021;-30
2023/06/07 04:17:22;;;;;;;18.80;17.00;;;24.40;70.20;;;;;;4755840;55;21583;-32
2023/06/07 04:22:24;;;;;;;17.17;15.57;;;24.40;70.10;;;;;;4627996;55;21061;-33
2023/06/07 04:27:29;;;;;;;17.98;16.17;;;24.40;70.10;;;;;;4747663;55;21092;-34
2023/06/07 04:32:30;;;;;;;17.52;15.82;;;24.40;70.10;;;;;;4615062;59;21503;-34
2023/06/07 04:37:31;;;;;;;17.73;16.02;;;24.40;70.10;;;;;;4703552;55;21025;-34
2023/06/07 04:42:33;;;;;;;17.80;16.17;;;24.40;70.10;;;;;;4690700;55;21477;-33
2023/06/07 04:47:35;;;;;;;18.00;16.30;;;24.40;70.10;;;;;;4750461;55;21590;-33
2023/06/07 04:52:38;;;;;;;17.10;15.50;;;24.40;70.00;;;;;;4621075;55;21539;-33
2023/06/07 04:57:39;;;;;;;17.85;16.15;;;24.40;70.00;;;;;;4749157;55;21530;-34
2023/06/07 05:02:43;;;;;;;17.83;16.12;;;24.40;70.00;;;;;;4665278;55;21082;-36
2023/06/07 05:07:44;;;;;;;18.35;16.45;;;24.40;70.00;;;;;;4615864;59;21552;-33
2023/06/07 05:12:45;;;;;;;18.15;16.40;;;24.40;70.00;;;;;;4683227;55;22278;-32
2023/06/07 05:17:46;;;;;;;17.15;15.55;;;24.40;70.00;;;;;;4652227;55;21041;-33
2023/06/07 05:22:47;;;;;;;18.50;16.60;;;24.40;70.00;;;;;;4643642;55;21563;-34
2023/06/07 05:27:52;;;;;;;19.23;17.33;;;24.40;70.00;;;;;;4661742;55;21101;-34
2023/06/07 05:32:53;;;;;;;19.48;17.02;;;24.40;69.90;;;;;;4615793;59;21981;-33
2023/06/07 05:37:54;;;;;;;19.83;17.37;;;24.40;69.90;;;;;;4684296;55;21060;-32
2023/06/07 05:42:56;;;;;;;19.60;16.98;;;24.40;69.90;;;;;;4639484;55;22073;-35
2023/06/07 05:47:57;;;;;;;26.33;18.60;;;24.40;69.90;;;;;;4786599;55;21627;-33
2023/06/07 05:52:59;;;;;;;25.30;18.73;;;24.40;69.80;;;;;;4678900;55;21029;-32
2023/06/07 05:58:05;;;;;;;26.55;19.27;;;24.40;70.50;;;;;;4651505;56;22520;-34
2023/06/07 06:03:06;;;;;;;28.62;20.75;;;24.40;69.80;;;;;;4617116;55;21049;-35
2023/06/07 06:08:07;;;;;;;27.73;19.77;;;24.40;69.80;;;;;;4718576;56;21577;-33
2023/06/07 06:13:08;;;;;;;29.50;19.87;;;24.40;69.70;;;;;;4718085;55;21149;-35
2023/06/07 06:18:09;;;;;;;29.20;20.23;;;24.30;69.70;;;;;;4615692;60;21114;-34
2023/06/07 06:23:10;;;;;;;29.33;20.35;;;24.40;69.80;;;;;;4614587;60;21538;-34
2023/06/07 06:28:10;;;;;;;32.08;20.73;;;24.40;69.70;;;;;;4630862;55;21080;-32
2023/06/07 06:33:11;;;;;;;30.40;21.50;;;24.30;69.60;;;;;;4614000;59;21017;-34
2023/06/07 06:38:12;;;;;;;31.17;22.20;;;24.40;69.70;;;;;;4847709;55;21088;-34
2023/06/07 06:43:13;;;;;;;36.00;22.95;;;24.40;69.70;;;;;;4627463;56;21590;-32
2023/06/07 06:48:14;;;;;;;39.47;23.27;;;24.40;69.60;;;;;;4634582;55;21033;-30
2023/06/07 06:53:15;;;;;;;40.35;24.15;;;24.40;69.60;;;;;;4651937;55;21202;-32
2023/06/07 06:58:16;;;;;;;36.97;22.85;;;24.40;69.60;;;;;;4613841;59;22295;-32
2023/06/07 07:03:16;;;;;;;39.40;24.45;;;24.40;69.80;;;;;;4622545;55;21069;-36
2023/06/07 07:08:17;;;;;;;41.80;23.80;;;24.50;69.50;;;;;;4630342;55;21102;-35
2023/06/07 07:13:18;;;;;;;42.50;24.70;;;24.40;69.50;;;;;;4648248;56;21068;-33
2023/06/07 07:18:20;;;;;;;39.70;25.67;;;24.40;69.40;;;;;;4618221;55;21029;-33
2023/06/07 07:23:20;;;;;;;39.20;25.60;;;24.50;69.50;;;;;;4769520;56;21483;-33
2023/06/07 07:28:21;;;;;;;43.67;25.15;;;24.50;69.40;;;;;;4614111;59;21061;-33
2023/06/07 07:33:22;;;;;;;41.00;25.02;;;24.50;69.30;;;;;;4663903;55;21080;-32
2023/06/07 07:38:23;;;;;;;41.05;25.58;;;24.50;69.30;;;;;;4797278;55;21089;-34
2023/06/07 07:43:24;;;;;;;48.47;26.48;;;24.50;69.40;;;;;;4621361;55;21049;-34
2023/06/07 07:48:25;;;;;;;42.65;25.58;;;24.50;69.30;;;;;;4614421;59;21375;-34
2023/06/07 07:53:25;;;;;;;42.08;25.98;;;24.50;69.20;;;;;;4615476;59;21029;-33
2023/06/07 07:58:26;;;;;;;43.28;26.27;;;24.50;69.20;;;;;;4695863;55;21077;-34
2023/06/07 08:03:30;;;;;;;41.33;25.52;;;24.50;69.20;;;;;;4614720;56;21531;-34
2023/06/07 08:08:31;;;;;;;43.05;26.42;;;24.50;69.10;;;;;;4615256;56;21092;-34
2023/06/07 08:13:32;;;;;;;43.22;27.33;;;24.50;69.10;;;;;;4729077;55;21582;-33
2023/06/07 08:18:33;;;;;;;44.92;26.50;;;24.50;69.10;;;;;;4637578;55;21097;-35
2023/06/07 08:23:35;;;;;;;44.47;26.52;;;24.60;69.10;;;;;;4624349;55;21121;-34
2023/06/07 08:28:36;;;;;;;42.78;27.65;;;24.50;69.10;;;;;;4615380;60;21081;-33
2023/06/07 08:33:37;;;;;;;45.63;26.95;;;24.50;69.00;;;;;;4615764;59;21033;-33
2023/06/07 08:38:39;;;;;;;41.90;26.48;;;24.50;69.00;;;;;;4676831;56;21101;-33
2023/06/07 08:43:43;;;;;;;42.92;27.08;;;24.50;68.90;;;;;;4687720;56;21606;-33
2023/06/07 08:48:47;;;;;;;39.58;25.58;;;24.60;69.00;;;;;;4615520;60;21062;-35
2023/06/07 08:54:02;;;;;;;41.53;26.25;;;24.60;68.90;;;;;;4640599;55;21814;-33
2023/06/07 08:59:04;;;;;;;42.35;25.88;;;24.60;69.00;;;;;;4649890;56;20997;-35
2023/06/07 09:04:07;;;;;;;42.33;25.70;;;24.60;68.90;;;;;;4615342;60;21093;-34
2023/06/07 09:09:08;;;;;;;39.85;26.25;;;24.60;68.90;;;;;;4639574;56;21025;-36
2023/06/07 09:14:11;;;;;;;41.63;27.08;;;24.60;68.90;;;;;;4615575;57;21057;-36
2023/06/07 09:19:30;;;;;;;38.40;25.70;;;24.60;68.90;;;;;;4644001;56;21021;-35
2023/06/07 09:24:32;;;;;;;41.75;26.90;;;24.60;68.90;;;;;;4615165;60;21526;-35
2023/06/07 09:29:41;;;;;;;41.10;25.98;;;24.60;68.80;;;;;;4615127;60;21602;-32
2023/06/07 09:34:42;;;;;;;40.50;26.85;;;24.60;68.80;;;;;;4640753;56;21077;-33
2023/06/07 09:39:43;;;;;;;41.17;26.48;;;24.60;68.90;;;;;;4712607;56;21089;-33
2023/06/07 09:44:44;;;;;;;38.30;24.98;;;24.60;68.80;;;;;;4655907;55;21670;-29
2023/06/07 09:49:45;;;;;;;39.38;25.50;;;24.60;68.80;;;;;;4635344;56;21017;-31
2023/06/07 09:54:46;;;;;;;36.00;25.10;;;24.60;68.80;;;;;;4621798;55;21005;-35
2023/06/07 09:59:59;;;;;;;41.67;25.25;;;24.60;68.80;;;;;;4640362;56;21093;-35
2023/06/07 10:05:00;;;;;;;40.70;27.13;;;24.60;68.70;;;;;;4624119;56;21519;-33
2023/06/07 10:10:02;;;;;;;39.00;26.25;;;24.60;69.50;;;;;;4613904;59;21057;-36
2023/06/07 10:15:05;;;;;;;37.63;25.27;;;24.60;68.80;;;;;;4614371;57;21546;-35
2023/06/07 10:20:13;;;;;;;38.53;26.10;;;24.60;68.80;;;;;;4615233;60;21129;-34
2023/06/07 10:25:18;;;;;;;37.80;25.27;;;24.70;68.80;;;;;;4654018;56;21010;-34
2023/06/07 10:30:22;;;;;;;33.58;23.75;;;24.70;68.80;;;;;;4614035;60;21370;-33
2023/06/07 10:35:23;;;;;;;35.75;24.10;;;24.70;68.80;;;;;;4652899;56;21013;-33
2023/06/07 10:40:25;;;;;;;33.92;23.98;;;24.70;68.80;;;;;;4648699;56;21116;-28
2023/06/07 10:45:26;;;;;;;33.63;23.75;;;24.80;68.50;;;;;;4641132;56;21690;-32
2023/06/07 10:50:48;;;;;;;34.85;25.45;;;24.80;68.70;;;;;;4666853;55;21168;-31
2023/06/07 10:55:49;;;;;;;33.40;24.77;;;24.80;68.90;;;;;;4618638;56;21164;-30
2023/06/07 11:00:50;;;;;;;39.25;25.45;;;24.80;69.20;;;;;;4614867;56;21080;-32
2023/06/07 11:06:09;;;;;;;33.25;24.25;;;24.90;69.30;;;;;;4612914;60;21041;-33
2023/06/07 11:13:03;;;;;;;38.00;25.50;;;24.90;69.40;;;;;;4630538;56;21558;-34
2023/06/07 11:18:07;;;;;;;34.38;23.50;;;24.90;69.50;;;;;;4613034;60;21531;-31
2023/06/07 11:23:26;;;;;;;33.10;22.48;;;24.90;69.40;;;;;;4626090;56;21561;-31
2023/06/07 11:28:31;;;;;;;32.60;23.62;;;24.90;69.50;;;;;;4631484;56;21013;-34
2023/06/07 11:33:32;;;;;;;32.92;22.50;;;25.00;69.50;;;;;;4648998;56;21611;-30
2023/06/07 11:38:33;;;;;;;32.65;22.35;;;25.00;69.80;;;;;;4614375;55;21503;-28
2023/06/07 11:43:34;;;;;;;35.80;23.00;;;25.00;69.80;;;;;;4615618;55;21133;-33
2023/06/07 11:48:35;;;;;;;33.65;22.98;;;25.00;69.80;;;;;;4631944;55;21487;-28
2023/06/07 11:53:36;;;;;;;31.67;22.45;;;25.00;69.90;;;;;;4619953;55;21090;-33
2023/06/07 11:58:36;;;;;;;32.88;21.75;;;25.00;70.00;;;;;;4634917;55;21463;-38
2023/06/07 12:03:37;;;;;;;28.70;22.13;;;25.00;70.70;;;;;;4626826;55;21062;-32
2023/06/07 12:08:38;;;;;;;32.78;22.92;;;25.00;70.00;;;;;;4643751;55;21104;-32
2023/06/07 12:13:40;;;;;;;30.80;22.15;;;25.10;70.00;;;;;;4614184;59;21093;-28
2023/06/07 12:18:41;;;;;;;30.83;22.13;;;25.10;70.10;;;;;;4613722;59;21524;-31
2023/06/07 12:23:53;;;;;;;30.17;22.05;;;25.10;70.20;;;;;;4628006;55;21566;-31
2023/06/07 12:28:54;;;;;;;28.17;21.45;;;25.10;70.20;;;;;;4618175;56;21471;-33
2023/06/07 12:34:14;;;;;;;30.70;21.08;;;25.10;70.20;;;;;;4614219;56;21085;-33
2023/06/07 12:39:18;;;;;;;29.08;22.70;;;25.10;70.60;;;;;;4673825;56;21068;-32
2023/06/07 12:44:19;;;;;;;30.90;21.80;;;25.10;70.70;;;;;;4650281;56;21053;-32
2023/06/07 12:49:20;;;;;;;33.22;21.62;;;25.10;70.90;;;;;;4614323;60;21021;-32
2023/06/07 12:54:20;;;;;;;28.15;21.87;;;25.10;70.80;;;;;;4613960;59;21092;-32
2023/06/07 12:59:21;;;;;;;29.00;21.17;;;25.20;71.00;;;;;;4617882;55;21532;-34
2023/06/07 13:04:23;;;;;;;26.70;20.88;;;25.10;70.80;;;;;;4612758;60;21060;-32
2023/06/07 13:09:24;;;;;;;29.00;21.45;;;25.10;71.10;;;;;;4612832;60;21515;-36
2023/06/07 13:14:25;;;;;;;29.30;21.90;;;25.00;71.10;;;;;;4638607;55;21115;-34
2023/06/07 13:19:25;;;;;;;29.45;20.77;;;24.90;71.10;;;;;;4700156;55;21017;-33
2023/06/07 13:24:26;;;;;;;27.25;19.65;;;24.90;71.20;;;;;;4614397;59;21089;-34
2023/06/07 13:29:27;;;;;;;24.65;20.15;;;24.90;71.20;;;;;;4703567;55;21202;-33
2023/06/07 13:34:28;;;;;;;27.35;21.20;;;24.90;71.30;;;;;;4643197;55;21034;-34
2023/06/07 13:39:29;;;;;;;26.70;19.75;;;24.90;71.20;;;;;;4741168;56;21599;-35
2023/06/07 13:44:33;;;;;;;25.80;20.20;;;24.90;71.20;;;;;;4619605;55;21141;-33
2023/06/07 13:49:35;;;;;;;25.25;20.00;;;24.80;71.10;;;;;;4668260;55;21510;-33
2023/06/07 13:54:36;;;;;;;26.20;20.02;;;24.80;71.10;;;;;;4615369;60;21021;-34
2023/06/07 13:59:38;;;;;;;26.60;20.35;;;24.80;71.10;;;;;;4634261;55;21487;-33
2023/06/07 14:04:39;;;;;;;26.75;20.55;;;24.80;71.10;;;;;;4615045;60;21673;-34
2023/06/07 14:09:40;;;;;;;24.63;19.30;;;24.80;71.10;;;;;;4750701;55;21562;-33
2023/06/07 14:14:41;;;;;;;23.92;18.70;;;24.80;71.10;;;;;;4675200;55;21100;-33
2023/06/07 14:19:42;;;;;;;25.12;19.08;;;24.80;71.10;;;;;;4615692;56;21029;-32
2023/06/07 14:24:43;;;;;;;26.52;20.62;;;24.80;71.10;;;;;;4781960;55;21562;-32
2023/06/07 14:29:44;;;;;;;26.37;20.90;;;24.80;71.10;;;;;;4911476;55;21126;-32
2023/06/07 14:34:45;;;;;;;26.05;20.80;;;24.80;71.10;;;;;;4615593;59;21510;-33
2023/06/07 14:39:46;;;;;;;26.52;20.40;;;24.80;71.00;;;;;;4659145;55;21021;-34
2023/06/07 14:44:46;;;;;;;24.52;19.17;;;24.80;71.10;;;;;;4627566;55;21631;-36
2023/06/07 14:49:48;;;;;;;25.45;20.30;;;24.80;71.00;;;;;;4615660;60;21027;-31
2023/06/07 14:54:49;;;;;;;22.85;19.12;;;24.80;71.00;;;;;;4635075;56;20999;-33
2023/06/07 14:59:52;;;;;;;27.00;20.00;;;24.80;71.10;;;;;;4662344;55;21013;-32
2023/06/07 15:04:53;;;;;;;24.75;19.90;;;24.80;71.00;;;;;;4615525;55;21033;-34
2023/06/07 15:09:54;;;;;;;23.95;19.05;;;24.80;71.00;;;;;;4657238;56;21639;-32
2023/06/07 15:14:55;;;;;;;24.75;19.80;;;24.70;71.00;;;;;;4720621;55;21132;-33
2023/06/07 15:19:56;;;;;;;24.40;19.40;;;24.80;71.00;;;;;;4744592;55;21519;-35
2023/06/07 15:24:56;;;;;;;24.50;19.05;;;24.70;70.90;;;;;;4632667;55;21037;-33
2023/06/07 15:29:57;;;;;;;24.02;19.30;;;24.80;70.90;;;;;;4649330;55;21536;-35
2023/06/07 15:34:58;;;;;;;24.05;19.00;;;24.80;70.90;;;;;;4782713;55;21484;-36
2023/06/07 15:39:59;;;;;;;24.95;20.48;;;24.70;70.80;;;;;;4634536;55;21009;-35
2023/06/07 15:45:00;;;;;;;21.35;18.10;;;24.70;70.80;;;;;;4709341;56;21210;-33
2023/06/07 15:50:01;;;;;;;21.35;18.27;;;24.70;70.80;;;;;;4614968;59;21043;-33
2023/06/07 15:55:02;;;;;;;23.20;19.77;;;24.70;70.90;;;;;;4685437;55;21543;-33
2023/06/07 16:00:03;;;;;;;22.13;18.42;;;24.70;70.80;;;;;;4618558;55;21077;-33
2023/06/07 16:05:07;;;;;;;23.50;18.77;;;24.70;70.80;;;;;;4742611;56;21069;-33
2023/06/07 16:10:09;;;;;;;22.87;18.45;;;24.80;70.80;;;;;;4676153;56;21053;-34
2023/06/07 16:15:10;;;;;;;22.30;18.27;;;24.70;70.80;;;;;;4631516;56;21069;-33
2023/06/07 16:20:12;;;;;;;19.35;16.77;;;24.80;70.90;;;;;;4663396;55;21095;-33
2023/06/07 16:25:13;;;;;;;22.92;19.10;;;24.80;70.80;;;;;;4614426;59;21567;-34
2023/06/07 16:30:14;;;;;;;21.45;17.52;;;24.80;70.80;;;;;;4739338;55;21033;-32
2023/06/07 16:35:15;;;;;;;20.90;17.08;;;24.70;70.70;;;;;;4711631;56;21073;-34
2023/06/07 16:40:16;;;;;;;22.23;17.55;;;24.80;70.80;;;;;;4615735;59;21563;-33
2023/06/07 16:45:17;;;;;;;22.48;18.23;;;24.80;70.80;;;;;;4629418;55;21128;-34
2023/06/07 16:50:18;;;;;;;21.60;17.58;;;24.70;70.70;;;;;;4617748;55;21673;-33
2023/06/07 16:55:19;;;;;;;20.50;17.92;;;24.80;70.70;;;;;;4615243;59;21096;-32
2023/06/07 17:00:21;;;;;;;19.02;16.48;;;24.70;70.70;;;;;;4629934;56;21678;-35
2023/06/07 17:05:21;;;;;;;20.60;17.62;;;24.70;70.60;;;;;;4705043;56;21037;-35
2023/06/07 17:10:29;;;;;;;20.10;17.37;;;24.70;70.70;;;;;;4615496;59;21491;-33
2023/06/07 17:15:30;;;;;;;21.20;18.30;;;24.70;70.70;;;;;;4615661;60;21508;-32
2023/06/07 17:20:31;;;;;;;22.25;17.98;;;24.70;70.70;;;;;;4717494;56;21049;-33
2023/06/07 17:25:31;;;;;;;20.30;16.10;;;24.80;70.70;;;;;;4614731;59;21037;-32
2023/06/07 17:30:37;;;;;;;22.23;18.12;;;24.70;70.70;;;;;;4728400;55;21030;-34
2023/06/07 17:35:42;;;;;;;21.87;17.07;;;24.80;70.70;;;;;;4640009;56;21021;-33
2023/06/07 17:40:43;;;;;;;20.05;16.60;;;24.80;70.70;;;;;;4771147;56;21563;-32
2023/06/07 17:45:44;;;;;;;18.42;15.55;;;24.80;70.60;;;;;;4614581;59;21109;-34
2023/06/07 17:50:46;;;;;;;21.73;17.60;;;24.80;70.60;;;;;;4615913;59;21516;-34
2023/06/07 17:55:47;;;;;;;20.88;17.85;;;24.80;70.60;;;;;;4662147;55;21661;-35
2023/06/07 18:00:47;;;;;;;22.87;17.58;;;24.70;70.60;;;;;;4705769;55;21537;-35
2023/06/07 18:05:48;;;;;;;20.73;17.20;;;24.80;70.60;;;;;;4615784;55;21033;-34
2023/06/07 18:10:53;;;;;;;20.80;17.05;;;24.70;70.60;;;;;;4615193;59;21029;-33
2023/06/07 18:15:54;;;;;;;20.37;17.30;;;24.80;70.60;;;;;;4675722;56;21477;-34
2023/06/07 18:20:54;;;;;;;21.35;17.27;;;24.70;70.70;;;;;;4615696;56;21499;-33
2023/06/07 18:25:59;;;;;;;18.98;16.85;;;24.70;70.60;;;;;;4692363;55;21030;-34
2023/06/07 18:31:00;;;;;;;20.27;17.33;;;24.70;70.60;;;;;;4621080;55;21471;-33
2023/06/07 18:36:03;;;;;;;18.12;15.98;;;24.70;70.60;;;;;;4755195;55;21069;-35
2023/06/07 18:41:04;;;;;;;18.35;15.73;;;24.70;70.60;;;;;;4615122;60;21599;-33
2023/06/07 18:46:05;;;;;;;17.92;16.02;;;24.70;70.70;;;;;;4642030;55;21057;-33
2023/06/07 18:51:05;;;;;;;19.23;16.77;;;24.70;70.60;;;;;;4661788;55;21033;-36
2023/06/07 18:56:09;;;;;;;19.83;16.67;;;24.80;70.70;;;;;;4615132;60;21061;-35
2023/06/07 19:01:11;;;;;;;17.98;16.00;;;24.70;70.60;;;;;;4641037;55;21503;-34
2023/06/07 19:06:12;;;;;;;18.45;16.15;;;24.70;70.70;;;;;;4687614;55;21583;-33
2023/06/07 19:11:13;;;;;;;19.50;16.70;;;24.80;70.70;;;;;;4615817;60;21021;-36
2023/06/07 19:16:14;;;;;;;18.08;15.68;;;24.80;70.80;;;;;;4667953;55;21080;-34
2023/06/07 19:21:17;;;;;;;20.08;16.23;;;24.70;70.70;;;;;;4618658;55;21101;-35
2023/06/07 19:26:18;;;;;;;18.58;15.80;;;24.70;70.70;;;;;;4614744;60;21524;-31
2023/06/07 19:31:19;;;;;;;20.67;16.83;;;24.70;70.70;;;;;;4814658;56;21049;-33
2023/06/07 19:36:21;;;;;;;20.48;17.42;;;24.70;70.70;;;;;;4629312;56;21021;-34
2023/06/07 19:41:23;;;;;;;21.58;17.45;;;24.70;70.70;;;;;;4867754;55;21096;-33
2023/06/07 19:46:23;;;;;;;18.98;16.05;;;24.70;70.70;;;;;;4731503;55;21503;-32
2023/06/07 19:51:24;;;;;;;18.40;16.45;;;24.70;70.70;;;;;;4684305;55;21049;-34
2023/06/07 19:56:25;;;;;;;18.90;15.93;;;24.70;70.70;;;;;;4615540;56;21098;-33
2023/06/07 20:01:29;;;;;;;18.85;16.15;;;24.70;70.80;;;;;;4670295;55;21547;-32
2023/06/07 20:06:30;;;;;;;19.42;16.67;;;24.80;70.80;;;;;;4614790;60;21515;-32
2023/06/07 20:11:32;;;;;;;18.23;15.85;;;24.70;70.80;;;;;;4615438;60;21029;-33
2023/06/07 20:16:33;;;;;;;18.75;16.40;;;24.70;70.80;;;;;;4615824;59;21453;-32
2023/06/07 20:21:35;;;;;;;18.95;15.82;;;24.70;70.80;;;;;;4680567;55;21997;-33
2023/06/07 20:26:36;;;;;;;16.70;14.90;;;24.70;70.80;;;;;;4648733;55;21576;-34
2023/06/07 20:31:37;;;;;;;17.58;14.73;;;24.70;70.80;;;;;;4693702;55;21410;-33
2023/06/07 20:36:38;;;;;;;17.20;15.40;;;24.70;70.80;;;;;;4615864;59;21021;-34
2023/06/07 20:41:41;;;;;;;17.80;15.77;;;24.70;70.80;;;;;;4660592;55;21603;-33
2023/06/07 20:46:42;;;;;;;18.80;16.15;;;24.70;70.80;;;;;;4658269;55;21109;-32
2023/06/07 20:51:43;;;;;;;16.55;14.05;;;24.70;70.80;;;;;;4615721;55;21600;-34
2023/06/07 20:56:46;;;;;;;16.70;14.85;;;24.70;70.80;;;;;;4652836;55;21024;-35
2023/06/07 21:01:51;;;;;;;16.85;14.87;;;24.70;70.90;;;;;;4615601;60;21511;-34
2023/06/07 21:06:52;;;;;;;17.58;15.07;;;24.70;70.90;;;;;;4652762;55;21515;-35
2023/06/07 21:11:52;;;;;;;17.75;14.68;;;24.70;70.80;;;;;;4635853;55;21085;-32
2023/06/07 21:16:53;;;;;;;16.48;14.77;;;24.70;70.80;;;;;;4740835;55;21025;-31
2023/06/07 21:21:54;;;;;;;16.65;14.87;;;24.70;70.90;;;;;;4753135;55;21543;-33
2023/06/07 21:26:55;;;;;;;16.58;14.57;;;24.70;70.90;;;;;;4634819;55;21145;-36
2023/06/07 21:31:56;;;;;;;15.27;13.65;;;24.70;70.90;;;;;;4695691;55;21624;-34
2023/06/07 21:36:57;;;;;;;15.90;14.20;;;24.70;70.90;;;;;;4647796;56;21017;-33
2023/06/07 21:41:58;;;;;;;15.77;14.13;;;24.70;70.90;;;;;;4675550;55;21093;-32
2023/06/07 21:46:58;;;;;;;15.68;13.85;;;24.70;71.60;;;;;;4655095;55;21485;-32
2023/06/07 21:51:59;;;;;;;16.45;14.75;;;24.70;70.90;;;;;;4702344;55;21033;-33
2023/06/07 21:57:00;;;;;;;15.30;13.70;;;24.70;70.90;;;;;;4615252;59;21486;-30
2023/06/07 22:02:01;;;;;;;15.77;14.13;;;24.70;70.90;;;;;;4682198;55;21543;-32
2023/06/07 22:07:02;;;;;;;15.23;13.50;;;24.70;70.80;;;;;;4768480;55;21152;-33
2023/06/07 22:12:05;;;;;;;15.30;13.62;;;24.70;70.80;;;;;;4615641;60;21064;-33
2023/06/07 22:17:08;;;;;;;15.23;13.62;;;24.70;70.90;;;;;;4645118;56;21575;-40
2023/06/07 22:22:09;;;;;;;16.27;14.20;;;24.70;70.80;;;;;;4687615;55;21507;-33
2023/06/07 22:27:12;;;;;;;15.77;13.80;;;24.70;70.80;;;;;;4646048;55;21021;-32
2023/06/07 22:32:15;;;;;;;15.23;13.57;;;24.70;70.80;;;;;;4956339;55;21085;-34
2023/06/07 22:37:16;;;;;;;15.90;13.57;;;24.70;70.80;;;;;;4615503;57;20998;-33
2023/06/07 22:42:17;;;;;;;14.57;13.05;;;24.70;70.80;;;;;;4703018;55;21527;-34
2023/06/07 22:47:19;;;;;;;15.73;12.88;;;24.70;70.80;;;;;;4689002;55;21073;-33
2023/06/07 22:52:23;;;;;;;14.70;13.20;;;24.70;70.80;;;;;;4633597;55;21507;-34
2023/06/07 22:57:24;;;;;;;15.18;13.50;;;24.70;70.80;;;;;;4615213;60;22292;-34
2023/06/07 23:02:25;;;;;;;14.07;12.68;;;24.70;70.80;;;;;;4636480;55;21037;-33
2023/06/07 23:07:29;;;;;;;14.50;13.00;;;24.70;70.90;;;;;;4627667;55;21555;-32
2023/06/07 23:12:30;;;;;;;14.55;12.93;;;24.70;70.80;;;;;;4758493;55;21479;-32
2023/06/07 23:17:31;;;;;;;14.63;13.05;;;24.70;70.80;;;;;;4655639;55;21033;-33
2023/06/07 23:22:32;;;;;;;14.35;12.85;;;24.70;70.80;;;;;;4632556;56;21037;-32
2023/06/07 23:27:32;;;;;;;15.10;13.60;;;24.70;70.90;;;;;;4616208;55;21504;-32
2023/06/07 23:32:33;;;;;;;14.75;13.18;;;24.70;70.90;;;;;;4777897;55;21033;-32
2023/06/07 23:37:34;;;;;;;14.52;13.02;;;24.70;70.90;;;;;;4821074;55;21018;-34
2023/06/07 23:42:35;;;;;;;14.18;12.63;;;24.70;70.80;;;;;;4855311;55;21089;-33
2023/06/07 23:47:36;;;;;;;13.52;12.23;;;24.70;70.90;;;;;;4614775;55;21647;-34
2023/06/07 23:52:39;;;;;;;15.90;13.48;;;24.70;70.90;;;;;;4672719;55;21626;-34
2023/06/07 23:57:40;;;;;;;13.62;12.23;;;24.70;70.80;;;;;;4615541;60;21063;-29
